sensor_id;sensor_type;location;lat;lon;timestamp;P1;durP1;ratioP1;P2;durP2;ratioP2
2257;SDS011;1136;51.574;7.706;2022-09-16T00:01:35;1.83;;;1.63;;
2257;SDS011;1136;51.574;7.706;2022-09-16T00:04:02;6.53;;;2.00;;
2257;SDS011;1136;51.574;7.706;2022-09-16T00:06:28;7.20;;;2.03;;
2257;SDS011;1136;51.574;7.706;2022-09-16T00:08:56;3.50;;;2.40;;
2257;SDS011;1136;51.574;7.706;2022-09-16T00:11:23;2.80;;;1.90;;
2257;SDS011;1136;51.574;7.706;2022-09-16T00:13:50;2.50;;;2.30;;
2257;SDS011;1136;51.574;7.706;2022-09-16T00:16:18;5.43;;;2.10;;
2257;SDS011;1136;51.574;7.706;2022-09-16T00:18:53;4.27;;;2.10;;
2257;SDS011;1136;51.574;7.706;2022-09-16T00:21:21;4.10;;;2.70;;
2257;SDS011;1136;51.574;7.706;2022-09-16T00:23:48;4.10;;;1.73;;
2257;SDS011;1136;51.574;7.706;2022-09-16T00:26:14;2.60;;;1.63;;
2257;SDS011;1136;51.574;7.706;2022-09-16T00:28:41;4.17;;;2.03;;
2257;SDS011;1136;51.574;7.706;2022-09-16T00:31:08;2.83;;;1.30;;
2257;SDS011;1136;51.574;7.706;2022-09-16T00:33:35;4.33;;;1.70;;
2257;SDS011;1136;51.574;7.706;2022-09-16T00:36:05;4.23;;;2.20;;
2257;SDS011;1136;51.574;7.706;2022-09-16T00:38:36;8.93;;;2.43;;
2257;SDS011;1136;51.574;7.706;2022-09-16T00:41:03;3.10;;;1.70;;
2257;SDS011;1136;51.574;7.706;2022-09-16T00:46:20;7.53;;;2.03;;
2257;SDS011;1136;51.574;7.706;2022-09-16T00:48:52;8.33;;;2.10;;
2257;SDS011;1136;51.574;7.706;2022-09-16T00:51:19;3.30;;;1.77;;
2257;SDS011;1136;51.574;7.706;2022-09-16T00:53:49;3.03;;;1.60;;
2257;SDS011;1136;51.574;7.706;2022-09-16T00:56:23;3.27;;;1.67;;
2257;SDS011;1136;51.574;7.706;2022-09-16T01:01:35;4.30;;;1.53;;
2257;SDS011;1136;51.574;7.706;2022-09-16T01:04:04;3.60;;;1.57;;
2257;SDS011;1136;51.574;7.706;2022-09-16T01:06:39;7.07;;;2.03;;
2257;SDS011;1136;51.574;7.706;2022-09-16T01:09:05;1.70;;;1.60;;
2257;SDS011;1136;51.574;7.706;2022-09-16T01:11:32;1.93;;;1.30;;
2257;SDS011;1136;51.574;7.706;2022-09-16T01:13:59;3.17;;;1.87;;
2257;SDS011;1136;51.574;7.706;2022-09-16T01:16:49;3.67;;;1.80;;
2257;SDS011;1136;51.574;7.706;2022-09-16T01:22:26;3.10;;;2.00;;
2257;SDS011;1136;51.574;7.706;2022-09-16T01:27:44;3.77;;;1.70;;
2257;SDS011;1136;51.574;7.706;2022-09-16T01:35:28;2.30;;;1.50;;
2257;SDS011;1136;51.574;7.706;2022-09-16T01:38:17;5.57;;;2.00;;
2257;SDS011;1136;51.574;7.706;2022-09-16T01:41:02;4.60;;;1.67;;
2257;SDS011;1136;51.574;7.706;2022-09-16T01:43:39;3.70;;;1.90;;
2257;SDS011;1136;51.574;7.706;2022-09-16T01:46:18;4.53;;;2.00;;
2257;SDS011;1136;51.574;7.706;2022-09-16T01:51:28;3.83;;;1.63;;
2257;SDS011;1136;51.574;7.706;2022-09-16T02:05:05;4.17;;;1.70;;
2257;SDS011;1136;51.574;7.706;2022-09-16T02:07:37;2.37;;;1.60;;
2257;SDS011;1136;51.574;7.706;2022-09-16T02:10:15;3.27;;;2.10;;
2257;SDS011;1136;51.574;7.706;2022-09-16T02:12:46;5.43;;;1.90;;
2257;SDS011;1136;51.574;7.706;2022-09-16T02:15:15;5.30;;;2.20;;
2257;SDS011;1136;51.574;7.706;2022-09-16T02:17:51;3.90;;;1.90;;
2257;SDS011;1136;51.574;7.706;2022-09-16T02:20:24;3.43;;;1.80;;
2257;SDS011;1136;51.574;7.706;2022-09-16T02:22:55;4.30;;;1.80;;
2257;SDS011;1136;51.574;7.706;2022-09-16T02:25:24;3.00;;;1.90;;
2257;SDS011;1136;51.574;7.706;2022-09-16T02:27:51;4.30;;;2.13;;
2257;SDS011;1136;51.574;7.706;2022-09-16T02:30:19;3.07;;;1.77;;
2257;SDS011;1136;51.574;7.706;2022-09-16T02:32:58;3.43;;;1.80;;
2257;SDS011;1136;51.574;7.706;2022-09-16T02:35:28;4.40;;;2.10;;
2257;SDS011;1136;51.574;7.706;2022-09-16T02:40:33;8.03;;;2.03;;
2257;SDS011;1136;51.574;7.706;2022-09-16T02:43:02;4.13;;;2.10;;
2257;SDS011;1136;51.574;7.706;2022-09-16T02:45:45;4.87;;;2.00;;
2257;SDS011;1136;51.574;7.706;2022-09-16T02:50:51;4.67;;;2.47;;
2257;SDS011;1136;51.574;7.706;2022-09-16T02:56:23;4.33;;;2.57;;
2257;SDS011;1136;51.574;7.706;2022-09-16T02:58:52;7.50;;;2.33;;
2257;SDS011;1136;51.574;7.706;2022-09-16T03:01:19;7.73;;;3.07;;
2257;SDS011;1136;51.574;7.706;2022-09-16T03:03:47;4.43;;;2.63;;
2257;SDS011;1136;51.574;7.706;2022-09-16T03:06:15;5.97;;;3.33;;
2257;SDS011;1136;51.574;7.706;2022-09-16T03:08:42;9.80;;;3.93;;
2257;SDS011;1136;51.574;7.706;2022-09-16T03:11:37;4.47;;;2.77;;
2257;SDS011;1136;51.574;7.706;2022-09-16T03:16:30;4.37;;;3.10;;
2257;SDS011;1136;51.574;7.706;2022-09-16T03:22:09;9.13;;;3.90;;
2257;SDS011;1136;51.574;7.706;2022-09-16T03:27:30;6.50;;;2.87;;
2257;SDS011;1136;51.574;7.706;2022-09-16T03:30:06;3.83;;;3.17;;
2257;SDS011;1136;51.574;7.706;2022-09-16T03:35:29;6.43;;;3.20;;
2257;SDS011;1136;51.574;7.706;2022-09-16T03:37:57;6.40;;;3.60;;
2257;SDS011;1136;51.574;7.706;2022-09-16T03:40:25;4.53;;;3.20;;
2257;SDS011;1136;51.574;7.706;2022-09-16T03:42:55;4.90;;;3.27;;
2257;SDS011;1136;51.574;7.706;2022-09-16T03:45:23;6.00;;;3.33;;
2257;SDS011;1136;51.574;7.706;2022-09-16T03:47:50;5.43;;;3.37;;
2257;SDS011;1136;51.574;7.706;2022-09-16T03:50:18;6.33;;;2.63;;
2257;SDS011;1136;51.574;7.706;2022-09-16T03:52:45;3.90;;;2.70;;
2257;SDS011;1136;51.574;7.706;2022-09-16T03:55:12;7.00;;;2.97;;
2257;SDS011;1136;51.574;7.706;2022-09-16T03:57:39;4.80;;;2.50;;
2257;SDS011;1136;51.574;7.706;2022-09-16T04:00:06;6.43;;;2.47;;
2257;SDS011;1136;51.574;7.706;2022-09-16T04:02:34;3.10;;;2.27;;
2257;SDS011;1136;51.574;7.706;2022-09-16T04:05:01;4.73;;;2.07;;
2257;SDS011;1136;51.574;7.706;2022-09-16T04:07:30;4.97;;;2.63;;
2257;SDS011;1136;51.574;7.706;2022-09-16T04:09:58;6.57;;;2.50;;
2257;SDS011;1136;51.574;7.706;2022-09-16T04:12:25;6.73;;;2.23;;
2257;SDS011;1136;51.574;7.706;2022-09-16T04:14:52;2.50;;;2.30;;
2257;SDS011;1136;51.574;7.706;2022-09-16T04:17:18;5.03;;;2.40;;
2257;SDS011;1136;51.574;7.706;2022-09-16T04:19:45;5.80;;;2.10;;
2257;SDS011;1136;51.574;7.706;2022-09-16T04:22:11;4.17;;;2.80;;
2257;SDS011;1136;51.574;7.706;2022-09-16T04:24:38;9.13;;;2.20;;
2257;SDS011;1136;51.574;7.706;2022-09-16T04:27:04;7.30;;;2.50;;
2257;SDS011;1136;51.574;7.706;2022-09-16T04:29:31;6.33;;;1.93;;
2257;SDS011;1136;51.574;7.706;2022-09-16T04:31:58;6.37;;;2.40;;
2257;SDS011;1136;51.574;7.706;2022-09-16T04:34:24;6.23;;;2.30;;
2257;SDS011;1136;51.574;7.706;2022-09-16T04:36:51;7.23;;;3.23;;
2257;SDS011;1136;51.574;7.706;2022-09-16T04:39:18;3.20;;;2.37;;
2257;SDS011;1136;51.574;7.706;2022-09-16T04:41:44;5.60;;;2.17;;
2257;SDS011;1136;51.574;7.706;2022-09-16T04:44:11;2.40;;;2.20;;
2257;SDS011;1136;51.574;7.706;2022-09-16T04:46:37;9.63;;;2.33;;
2257;SDS011;1136;51.574;7.706;2022-09-16T04:49:04;4.73;;;2.60;;
2257;SDS011;1136;51.574;7.706;2022-09-16T04:51:31;12.30;;;2.80;;
2257;SDS011;1136;51.574;7.706;2022-09-16T04:53:58;3.60;;;2.30;;
2257;SDS011;1136;51.574;7.706;2022-09-16T04:56:26;2.90;;;2.20;;
2257;SDS011;1136;51.574;7.706;2022-09-16T04:58:54;3.87;;;2.80;;
2257;SDS011;1136;51.574;7.706;2022-09-16T05:01:24;9.07;;;2.60;;
2257;SDS011;1136;51.574;7.706;2022-09-16T05:03:53;6.83;;;2.80;;
2257;SDS011;1136;51.574;7.706;2022-09-16T05:06:26;4.90;;;2.50;;
2257;SDS011;1136;51.574;7.706;2022-09-16T05:08:55;7.43;;;2.83;;
2257;SDS011;1136;51.574;7.706;2022-09-16T05:11:23;6.13;;;2.90;;
2257;SDS011;1136;51.574;7.706;2022-09-16T05:13:52;7.27;;;2.87;;
2257;SDS011;1136;51.574;7.706;2022-09-16T05:16:20;10.47;;;3.50;;
2257;SDS011;1136;51.574;7.706;2022-09-16T05:18:49;3.37;;;2.17;;
2257;SDS011;1136;51.574;7.706;2022-09-16T05:21:17;5.87;;;2.50;;
2257;SDS011;1136;51.574;7.706;2022-09-16T05:23:45;7.07;;;2.60;;
2257;SDS011;1136;51.574;7.706;2022-09-16T05:26:14;8.67;;;2.87;;
2257;SDS011;1136;51.574;7.706;2022-09-16T05:28:42;6.57;;;3.00;;
2257;SDS011;1136;51.574;7.706;2022-09-16T05:33:40;4.23;;;3.23;;
2257;SDS011;1136;51.574;7.706;2022-09-16T05:36:10;8.47;;;3.30;;
2257;SDS011;1136;51.574;7.706;2022-09-16T05:38:41;9.23;;;3.30;;
2257;SDS011;1136;51.574;7.706;2022-09-16T05:41:27;7.13;;;3.77;;
2257;SDS011;1136;51.574;7.706;2022-09-16T05:43:56;3.87;;;3.30;;
2257;SDS011;1136;51.574;7.706;2022-09-16T05:46:24;10.00;;;3.67;;
2257;SDS011;1136;51.574;7.706;2022-09-16T05:48:51;10.10;;;3.53;;
2257;SDS011;1136;51.574;7.706;2022-09-16T05:51:19;4.47;;;2.93;;
2257;SDS011;1136;51.574;7.706;2022-09-16T05:53:47;13.57;;;3.83;;
2257;SDS011;1136;51.574;7.706;2022-09-16T05:56:19;6.17;;;3.43;;
2257;SDS011;1136;51.574;7.706;2022-09-16T05:58:55;5.77;;;3.70;;
2257;SDS011;1136;51.574;7.706;2022-09-16T06:01:24;7.07;;;4.53;;
2257;SDS011;1136;51.574;7.706;2022-09-16T06:03:52;5.13;;;3.50;;
2257;SDS011;1136;51.574;7.706;2022-09-16T06:09:14;10.07;;;5.60;;
2257;SDS011;1136;51.574;7.706;2022-09-16T06:11:43;7.63;;;4.40;;
2257;SDS011;1136;51.574;7.706;2022-09-16T06:14:14;6.83;;;4.20;;
2257;SDS011;1136;51.574;7.706;2022-09-16T06:16:42;8.50;;;3.90;;
2257;SDS011;1136;51.574;7.706;2022-09-16T06:19:11;6.47;;;3.10;;
2257;SDS011;1136;51.574;7.706;2022-09-16T06:21:40;3.50;;;2.33;;
2257;SDS011;1136;51.574;7.706;2022-09-16T06:24:07;8.00;;;2.80;;
2257;SDS011;1136;51.574;7.706;2022-09-16T06:26:35;7.80;;;2.43;;
2257;SDS011;1136;51.574;7.706;2022-09-16T06:29:03;3.77;;;1.83;;
2257;SDS011;1136;51.574;7.706;2022-09-16T06:31:31;2.33;;;1.60;;
2257;SDS011;1136;51.574;7.706;2022-09-16T06:33:57;2.33;;;1.27;;
2257;SDS011;1136;51.574;7.706;2022-09-16T06:36:26;1.43;;;1.33;;
2257;SDS011;1136;51.574;7.706;2022-09-16T06:38:55;1.20;;;1.10;;
2257;SDS011;1136;51.574;7.706;2022-09-16T06:41:22;3.53;;;1.20;;
2257;SDS011;1136;51.574;7.706;2022-09-16T06:43:49;1.87;;;1.10;;
2257;SDS011;1136;51.574;7.706;2022-09-16T06:46:21;2.07;;;1.17;;
2257;SDS011;1136;51.574;7.706;2022-09-16T06:48:51;4.50;;;1.50;;
2257;SDS011;1136;51.574;7.706;2022-09-16T06:51:20;2.00;;;1.40;;
2257;SDS011;1136;51.574;7.706;2022-09-16T06:53:51;6.30;;;1.40;;
2257;SDS011;1136;51.574;7.706;2022-09-16T06:56:19;5.47;;;1.37;;
2257;SDS011;1136;51.574;7.706;2022-09-16T06:58:46;3.10;;;2.30;;
2257;SDS011;1136;51.574;7.706;2022-09-16T07:01:15;3.20;;;1.87;;
2257;SDS011;1136;51.574;7.706;2022-09-16T07:03:44;3.03;;;2.20;;
2257;SDS011;1136;51.574;7.706;2022-09-16T07:06:13;3.87;;;2.10;;
2257;SDS011;1136;51.574;7.706;2022-09-16T07:08:40;4.23;;;2.10;;
2257;SDS011;1136;51.574;7.706;2022-09-16T07:11:11;5.73;;;2.43;;
2257;SDS011;1136;51.574;7.706;2022-09-16T07:13:39;11.10;;;2.90;;
2257;SDS011;1136;51.574;7.706;2022-09-16T07:16:07;5.07;;;3.17;;
2257;SDS011;1136;51.574;7.706;2022-09-16T07:18:39;5.40;;;2.50;;
2257;SDS011;1136;51.574;7.706;2022-09-16T07:21:07;6.80;;;2.70;;
2257;SDS011;1136;51.574;7.706;2022-09-16T07:23:36;7.57;;;2.50;;
2257;SDS011;1136;51.574;7.706;2022-09-16T07:26:07;7.47;;;2.90;;
2257;SDS011;1136;51.574;7.706;2022-09-16T07:28:34;5.87;;;3.00;;
2257;SDS011;1136;51.574;7.706;2022-09-16T07:31:02;3.00;;;2.43;;
2257;SDS011;1136;51.574;7.706;2022-09-16T07:33:30;5.27;;;3.70;;
2257;SDS011;1136;51.574;7.706;2022-09-16T07:35:58;5.80;;;3.40;;
2257;SDS011;1136;51.574;7.706;2022-09-16T07:38:26;8.17;;;4.20;;
2257;SDS011;1136;51.574;7.706;2022-09-16T07:40:54;4.47;;;3.47;;
2257;SDS011;1136;51.574;7.706;2022-09-16T07:43:21;3.00;;;2.53;;
2257;SDS011;1136;51.574;7.706;2022-09-16T07:45:54;3.63;;;3.33;;
2257;SDS011;1136;51.574;7.706;2022-09-16T07:48:21;3.43;;;3.13;;
2257;SDS011;1136;51.574;7.706;2022-09-16T07:50:55;3.90;;;2.83;;
2257;SDS011;1136;51.574;7.706;2022-09-16T07:53:27;3.00;;;2.80;;
2257;SDS011;1136;51.574;7.706;2022-09-16T07:55:55;6.37;;;3.13;;
2257;SDS011;1136;51.574;7.706;2022-09-16T07:58:22;5.87;;;2.73;;
2257;SDS011;1136;51.574;7.706;2022-09-16T08:00:49;6.00;;;2.57;;
2257;SDS011;1136;51.574;7.706;2022-09-16T08:03:15;3.30;;;2.40;;
2257;SDS011;1136;51.574;7.706;2022-09-16T08:05:43;4.60;;;2.57;;
2257;SDS011;1136;51.574;7.706;2022-09-16T08:08:10;5.77;;;2.67;;
2257;SDS011;1136;51.574;7.706;2022-09-16T08:10:36;3.77;;;2.13;;
2257;SDS011;1136;51.574;7.706;2022-09-16T08:13:03;3.87;;;2.30;;
2257;SDS011;1136;51.574;7.706;2022-09-16T08:15:31;3.60;;;2.07;;
2257;SDS011;1136;51.574;7.706;2022-09-16T08:17:58;2.83;;;2.63;;
2257;SDS011;1136;51.574;7.706;2022-09-16T08:20:25;5.60;;;2.47;;
2257;SDS011;1136;51.574;7.706;2022-09-16T08:22:52;2.50;;;2.13;;
2257;SDS011;1136;51.574;7.706;2022-09-16T08:25:23;4.47;;;2.60;;
2257;SDS011;1136;51.574;7.706;2022-09-16T08:27:50;4.13;;;2.73;;
2257;SDS011;1136;51.574;7.706;2022-09-16T08:30:21;4.43;;;2.70;;
2257;SDS011;1136;51.574;7.706;2022-09-16T08:32:54;7.87;;;3.37;;
2257;SDS011;1136;51.574;7.706;2022-09-16T08:35:22;4.67;;;1.90;;
2257;SDS011;1136;51.574;7.706;2022-09-16T08:37:49;5.87;;;2.20;;
2257;SDS011;1136;51.574;7.706;2022-09-16T08:40:16;4.70;;;2.10;;
2257;SDS011;1136;51.574;7.706;2022-09-16T08:42:55;4.13;;;2.23;;
2257;SDS011;1136;51.574;7.706;2022-09-16T08:45:36;3.60;;;2.10;;
2257;SDS011;1136;51.574;7.706;2022-09-16T08:48:33;2.17;;;1.90;;
2257;SDS011;1136;51.574;7.706;2022-09-16T08:51:18;2.77;;;2.57;;
2257;SDS011;1136;51.574;7.706;2022-09-16T08:53:58;4.57;;;3.03;;
2257;SDS011;1136;51.574;7.706;2022-09-16T08:56:29;3.17;;;2.50;;
2257;SDS011;1136;51.574;7.706;2022-09-16T08:58:57;5.73;;;3.00;;
2257;SDS011;1136;51.574;7.706;2022-09-16T09:04:16;3.90;;;3.30;;
2257;SDS011;1136;51.574;7.706;2022-09-16T09:17:14;3.83;;;2.30;;
2257;SDS011;1136;51.574;7.706;2022-09-16T09:20:02;2.90;;;2.20;;
2257;SDS011;1136;51.574;7.706;2022-09-16T09:25:32;6.13;;;2.60;;
2257;SDS011;1136;51.574;7.706;2022-09-16T09:30:43;3.63;;;1.63;;
2257;SDS011;1136;51.574;7.706;2022-09-16T09:41:42;2.70;;;1.30;;
2257;SDS011;1136;51.574;7.706;2022-09-16T09:47:22;1.50;;;1.07;;
2257;SDS011;1136;51.574;7.706;2022-09-16T09:49:54;5.90;;;1.60;;
2257;SDS011;1136;51.574;7.706;2022-09-16T09:55:14;4.33;;;1.40;;
2257;SDS011;1136;51.574;7.706;2022-09-16T09:57:58;1.67;;;1.57;;
2257;SDS011;1136;51.574;7.706;2022-09-16T10:00:26;2.33;;;1.30;;
2257;SDS011;1136;51.574;7.706;2022-09-16T10:02:59;2.73;;;1.60;;
2257;SDS011;1136;51.574;7.706;2022-09-16T10:05:29;2.60;;;1.20;;
2257;SDS011;1136;51.574;7.706;2022-09-16T10:07:57;5.47;;;1.50;;
2257;SDS011;1136;51.574;7.706;2022-09-16T10:10:26;4.13;;;1.40;;
2257;SDS011;1136;51.574;7.706;2022-09-16T10:13:05;4.40;;;1.30;;
2257;SDS011;1136;51.574;7.706;2022-09-16T10:15:32;3.40;;;1.17;;
2257;SDS011;1136;51.574;7.706;2022-09-16T10:18:00;3.67;;;1.17;;
2257;SDS011;1136;51.574;7.706;2022-09-16T10:20:35;2.57;;;1.43;;
2257;SDS011;1136;51.574;7.706;2022-09-16T10:23:13;5.30;;;1.50;;
2257;SDS011;1136;51.574;7.706;2022-09-16T10:25:41;2.70;;;1.10;;
2257;SDS011;1136;51.574;7.706;2022-09-16T10:30:49;5.90;;;1.00;;
2257;SDS011;1136;51.574;7.706;2022-09-16T10:33:24;2.80;;;1.10;;
2257;SDS011;1136;51.574;7.706;2022-09-16T10:36:07;4.90;;;1.20;;
2257;SDS011;1136;51.574;7.706;2022-09-16T10:38:39;2.63;;;1.63;;
2257;SDS011;1136;51.574;7.706;2022-09-16T10:41:08;4.87;;;1.30;;
2257;SDS011;1136;51.574;7.706;2022-09-16T10:44:01;3.40;;;1.50;;
2257;SDS011;1136;51.574;7.706;2022-09-16T10:46:32;2.10;;;1.20;;
2257;SDS011;1136;51.574;7.706;2022-09-16T10:49:00;4.83;;;1.30;;
2257;SDS011;1136;51.574;7.706;2022-09-16T10:51:29;3.73;;;1.40;;
2257;SDS011;1136;51.574;7.706;2022-09-16T10:53:57;3.20;;;1.60;;
2257;SDS011;1136;51.574;7.706;2022-09-16T10:56:27;4.50;;;1.27;;
2257;SDS011;1136;51.574;7.706;2022-09-16T10:59:04;5.43;;;1.70;;
2257;SDS011;1136;51.574;7.706;2022-09-16T11:10:00;6.23;;;1.53;;
2257;SDS011;1136;51.574;7.706;2022-09-16T11:18:11;1.00;;;0.87;;
2257;SDS011;1136;51.574;7.706;2022-09-16T11:36:54;3.23;;;1.00;;
2257;SDS011;1136;51.574;7.706;2022-09-16T11:39:56;1.40;;;1.10;;
2257;SDS011;1136;51.574;7.706;2022-09-16T11:42:34;1.77;;;0.90;;
2257;SDS011;1136;51.574;7.706;2022-09-16T11:45:26;4.00;;;1.00;;
2257;SDS011;1136;51.574;7.706;2022-09-16T11:58:50;5.60;;;1.40;;
2257;SDS011;1136;51.574;7.706;2022-09-16T12:01:40;2.10;;;1.50;;
2257;SDS011;1136;51.574;7.706;2022-09-16T12:04:11;3.03;;;1.20;;
2257;SDS011;1136;51.574;7.706;2022-09-16T12:06:46;2.63;;;1.27;;
2257;SDS011;1136;51.574;7.706;2022-09-16T12:09:25;2.63;;;1.30;;
2257;SDS011;1136;51.574;7.706;2022-09-16T12:12:11;6.87;;;1.73;;
2257;SDS011;1136;51.574;7.706;2022-09-16T12:14:41;4.60;;;1.37;;
2257;SDS011;1136;51.574;7.706;2022-09-16T12:22:41;3.17;;;1.40;;
2257;SDS011;1136;51.574;7.706;2022-09-16T12:25:23;5.53;;;2.23;;
2257;SDS011;1136;51.574;7.706;2022-09-16T12:27:59;2.93;;;1.57;;
2257;SDS011;1136;51.574;7.706;2022-09-16T12:30:30;2.73;;;1.20;;
2257;SDS011;1136;51.574;7.706;2022-09-16T12:33:05;2.00;;;1.37;;
2257;SDS011;1136;51.574;7.706;2022-09-16T12:38:34;1.80;;;1.03;;
2257;SDS011;1136;51.574;7.706;2022-09-16T12:41:22;7.97;;;1.23;;
2257;SDS011;1136;51.574;7.706;2022-09-16T12:47:09;4.10;;;1.23;;
2257;SDS011;1136;51.574;7.706;2022-09-16T12:52:26;1.67;;;1.23;;
2257;SDS011;1136;51.574;7.706;2022-09-16T13:00:42;2.47;;;1.50;;
2257;SDS011;1136;51.574;7.706;2022-09-16T13:03:20;5.00;;;1.40;;
2257;SDS011;1136;51.574;7.706;2022-09-16T13:05:53;7.63;;;1.53;;
2257;SDS011;1136;51.574;7.706;2022-09-16T13:08:31;3.73;;;1.43;;
2257;SDS011;1136;51.574;7.706;2022-09-16T13:11:00;1.40;;;1.10;;
2257;SDS011;1136;51.574;7.706;2022-09-16T13:13:51;1.53;;;1.07;;
2257;SDS011;1136;51.574;7.706;2022-09-16T13:16:27;2.77;;;1.53;;
2257;SDS011;1136;51.574;7.706;2022-09-16T13:21:52;2.10;;;1.17;;
2257;SDS011;1136;51.574;7.706;2022-09-16T13:32:37;4.20;;;1.00;;
2257;SDS011;1136;51.574;7.706;2022-09-16T13:37:44;1.17;;;0.80;;
2257;SDS011;1136;51.574;7.706;2022-09-16T13:40:20;1.03;;;0.90;;
2257;SDS011;1136;51.574;7.706;2022-09-16T13:43:01;1.30;;;1.00;;
2257;SDS011;1136;51.574;7.706;2022-09-16T13:45:44;1.20;;;1.10;;
2257;SDS011;1136;51.574;7.706;2022-09-16T13:48:21;1.83;;;1.00;;
2257;SDS011;1136;51.574;7.706;2022-09-16T13:50:53;2.80;;;1.10;;
2257;SDS011;1136;51.574;7.706;2022-09-16T13:53:25;3.40;;;0.97;;
2257;SDS011;1136;51.574;7.706;2022-09-16T13:55:55;1.87;;;1.00;;
2257;SDS011;1136;51.574;7.706;2022-09-16T13:58:30;4.83;;;1.20;;
2257;SDS011;1136;51.574;7.706;2022-09-16T14:01:12;5.57;;;1.27;;
2257;SDS011;1136;51.574;7.706;2022-09-16T14:04:05;3.10;;;1.20;;
2257;SDS011;1136;51.574;7.706;2022-09-16T14:15:13;2.60;;;1.03;;
2257;SDS011;1136;51.574;7.706;2022-09-16T14:17:42;3.07;;;1.30;;
2257;SDS011;1136;51.574;7.706;2022-09-16T14:20:18;3.43;;;2.47;;
2257;SDS011;1136;51.574;7.706;2022-09-16T14:22:46;4.30;;;1.30;;
2257;SDS011;1136;51.574;7.706;2022-09-16T14:25:27;2.13;;;1.57;;
2257;SDS011;1136;51.574;7.706;2022-09-16T14:28:33;3.43;;;1.27;;
2257;SDS011;1136;51.574;7.706;2022-09-16T14:30:54;2.20;;;1.20;;
2257;SDS011;1136;51.574;7.706;2022-09-16T14:33:22;1.50;;;1.30;;
2257;SDS011;1136;51.574;7.706;2022-09-16T14:35:52;1.43;;;1.00;;
2257;SDS011;1136;51.574;7.706;2022-09-16T14:38:21;3.63;;;1.20;;
2257;SDS011;1136;51.574;7.706;2022-09-16T14:41:11;1.77;;;1.30;;
2257;SDS011;1136;51.574;7.706;2022-09-16T14:43:54;2.20;;;1.40;;
2257;SDS011;1136;51.574;7.706;2022-09-16T14:46:27;2.03;;;1.57;;
2257;SDS011;1136;51.574;7.706;2022-09-16T14:48:54;5.07;;;1.50;;
2257;SDS011;1136;51.574;7.706;2022-09-16T14:51:22;1.97;;;1.27;;
2257;SDS011;1136;51.574;7.706;2022-09-16T14:53:54;2.07;;;1.10;;
2257;SDS011;1136;51.574;7.706;2022-09-16T14:56:38;3.60;;;1.60;;
2257;SDS011;1136;51.574;7.706;2022-09-16T14:59:06;1.50;;;1.23;;
2257;SDS011;1136;51.574;7.706;2022-09-16T15:01:35;1.43;;;1.00;;
2257;SDS011;1136;51.574;7.706;2022-09-16T15:04:03;2.10;;;1.40;;
2257;SDS011;1136;51.574;7.706;2022-09-16T15:06:35;6.83;;;1.77;;
2257;SDS011;1136;51.574;7.706;2022-09-16T15:09:17;4.33;;;1.33;;
2257;SDS011;1136;51.574;7.706;2022-09-16T15:11:56;2.10;;;1.67;;
2257;SDS011;1136;51.574;7.706;2022-09-16T15:14:23;4.90;;;1.60;;
2257;SDS011;1136;51.574;7.706;2022-09-16T15:16:51;4.00;;;1.50;;
2257;SDS011;1136;51.574;7.706;2022-09-16T15:19:22;4.30;;;1.30;;
2257;SDS011;1136;51.574;7.706;2022-09-16T15:21:53;4.87;;;1.47;;
2257;SDS011;1136;51.574;7.706;2022-09-16T15:24:21;2.53;;;1.70;;
2257;SDS011;1136;51.574;7.706;2022-09-16T15:26:50;3.67;;;1.53;;
2257;SDS011;1136;51.574;7.706;2022-09-16T15:31:46;3.00;;;1.30;;
2257;SDS011;1136;51.574;7.706;2022-09-16T15:36:49;3.50;;;1.60;;
2257;SDS011;1136;51.574;7.706;2022-09-16T15:41:50;3.77;;;1.93;;
2257;SDS011;1136;51.574;7.706;2022-09-16T15:44:30;1.67;;;1.57;;
2257;SDS011;1136;51.574;7.706;2022-09-16T15:47:02;7.67;;;2.07;;
2257;SDS011;1136;51.574;7.706;2022-09-16T15:49:29;3.37;;;1.63;;
2257;SDS011;1136;51.574;7.706;2022-09-16T15:52:05;2.13;;;1.93;;
2257;SDS011;1136;51.574;7.706;2022-09-16T15:54:39;4.53;;;1.90;;
2257;SDS011;1136;51.574;7.706;2022-09-16T15:57:17;2.87;;;1.70;;
2257;SDS011;1136;51.574;7.706;2022-09-16T15:59:59;2.30;;;2.10;;
2257;SDS011;1136;51.574;7.706;2022-09-16T16:05:05;2.37;;;2.10;;
2257;SDS011;1136;51.574;7.706;2022-09-16T16:07:47;5.80;;;2.50;;
2257;SDS011;1136;51.574;7.706;2022-09-16T16:10:17;3.40;;;2.50;;
2257;SDS011;1136;51.574;7.706;2022-09-16T16:12:49;2.97;;;2.60;;
2257;SDS011;1136;51.574;7.706;2022-09-16T16:15:21;2.20;;;2.10;;
2257;SDS011;1136;51.574;7.706;2022-09-16T16:17:50;4.80;;;2.40;;
2257;SDS011;1136;51.574;7.706;2022-09-16T16:20:18;4.63;;;2.60;;
2257;SDS011;1136;51.574;7.706;2022-09-16T16:22:47;3.30;;;3.00;;
2257;SDS011;1136;51.574;7.706;2022-09-16T16:25:14;3.57;;;1.67;;
2257;SDS011;1136;51.574;7.706;2022-09-16T16:27:41;3.40;;;1.65;;
2257;SDS011;1136;51.574;7.706;2022-09-16T16:30:10;3.00;;;2.10;;
2257;SDS011;1136;51.574;7.706;2022-09-16T16:32:37;1.93;;;1.60;;
2257;SDS011;1136;51.574;7.706;2022-09-16T16:35:07;6.10;;;1.67;;
2257;SDS011;1136;51.574;7.706;2022-09-16T16:37:34;4.97;;;2.30;;
2257;SDS011;1136;51.574;7.706;2022-09-16T16:40:15;2.80;;;1.87;;
2257;SDS011;1136;51.574;7.706;2022-09-16T16:42:42;5.27;;;2.33;;
2257;SDS011;1136;51.574;7.706;2022-09-16T16:45:12;2.63;;;1.40;;
2257;SDS011;1136;51.574;7.706;2022-09-16T16:47:40;4.10;;;1.60;;
2257;SDS011;1136;51.574;7.706;2022-09-16T16:50:07;2.30;;;1.33;;
2257;SDS011;1136;51.574;7.706;2022-09-16T16:52:34;4.40;;;2.17;;
2257;SDS011;1136;51.574;7.706;2022-09-16T16:55:00;3.77;;;1.30;;
2257;SDS011;1136;51.574;7.706;2022-09-16T16:57:27;3.60;;;1.50;;
2257;SDS011;1136;51.574;7.706;2022-09-16T16:59:53;2.63;;;1.40;;
2257;SDS011;1136;51.574;7.706;2022-09-16T17:02:20;3.93;;;1.50;;
2257;SDS011;1136;51.574;7.706;2022-09-16T17:04:47;4.20;;;1.30;;
2257;SDS011;1136;51.574;7.706;2022-09-16T17:07:13;2.33;;;1.20;;
2257;SDS011;1136;51.574;7.706;2022-09-16T17:09:51;4.17;;;1.97;;
2257;SDS011;1136;51.574;7.706;2022-09-16T17:12:19;4.17;;;1.70;;
2257;SDS011;1136;51.574;7.706;2022-09-16T17:14:45;3.87;;;1.77;;
2257;SDS011;1136;51.574;7.706;2022-09-16T17:17:12;3.43;;;1.83;;
2257;SDS011;1136;51.574;7.706;2022-09-16T17:19:38;1.57;;;1.07;;
2257;SDS011;1136;51.574;7.706;2022-09-16T17:22:05;4.23;;;1.23;;
2257;SDS011;1136;51.574;7.706;2022-09-16T17:24:32;4.37;;;2.13;;
2257;SDS011;1136;51.574;7.706;2022-09-16T17:26:59;5.20;;;1.53;;
2257;SDS011;1136;51.574;7.706;2022-09-16T17:29:26;3.63;;;1.37;;
2257;SDS011;1136;51.574;7.706;2022-09-16T17:31:53;2.53;;;1.27;;
2257;SDS011;1136;51.574;7.706;2022-09-16T17:34:22;3.00;;;1.40;;
2257;SDS011;1136;51.574;7.706;2022-09-16T17:36:48;3.40;;;1.43;;
2257;SDS011;1136;51.574;7.706;2022-09-16T17:39:16;4.03;;;1.80;;
2257;SDS011;1136;51.574;7.706;2022-09-16T17:41:44;2.20;;;1.23;;
2257;SDS011;1136;51.574;7.706;2022-09-16T17:44:13;6.20;;;1.60;;
2257;SDS011;1136;51.574;7.706;2022-09-16T17:46:41;2.73;;;1.30;;
2257;SDS011;1136;51.574;7.706;2022-09-16T17:49:21;3.93;;;1.60;;
2257;SDS011;1136;51.574;7.706;2022-09-16T17:51:49;5.60;;;1.80;;
2257;SDS011;1136;51.574;7.706;2022-09-16T17:54:16;2.80;;;1.20;;
2257;SDS011;1136;51.574;7.706;2022-09-16T17:56:43;2.27;;;0.97;;
2257;SDS011;1136;51.574;7.706;2022-09-16T17:59:11;1.93;;;1.10;;
2257;SDS011;1136;51.574;7.706;2022-09-16T18:01:38;9.30;;;1.50;;
2257;SDS011;1136;51.574;7.706;2022-09-16T18:04:05;3.20;;;1.50;;
2257;SDS011;1136;51.574;7.706;2022-09-16T18:06:33;5.47;;;1.80;;
2257;SDS011;1136;51.574;7.706;2022-09-16T18:09:10;4.10;;;1.43;;
2257;SDS011;1136;51.574;7.706;2022-09-16T18:11:38;3.97;;;1.60;;
2257;SDS011;1136;51.574;7.706;2022-09-16T18:14:05;5.87;;;1.63;;
2257;SDS011;1136;51.574;7.706;2022-09-16T18:16:35;2.90;;;1.93;;
2257;SDS011;1136;51.574;7.706;2022-09-16T18:19:02;2.40;;;1.67;;
2257;SDS011;1136;51.574;7.706;2022-09-16T18:21:29;2.90;;;1.70;;
2257;SDS011;1136;51.574;7.706;2022-09-16T18:23:57;4.10;;;1.93;;
2257;SDS011;1136;51.574;7.706;2022-09-16T18:26:25;5.30;;;1.77;;
2257;SDS011;1136;51.574;7.706;2022-09-16T18:28:52;3.10;;;2.00;;
2257;SDS011;1136;51.574;7.706;2022-09-16T18:31:44;3.40;;;1.57;;
2257;SDS011;1136;51.574;7.706;2022-09-16T18:34:12;1.60;;;1.50;;
2257;SDS011;1136;51.574;7.706;2022-09-16T18:36:39;2.83;;;1.50;;
2257;SDS011;1136;51.574;7.706;2022-09-16T18:39:06;6.03;;;2.20;;
2257;SDS011;1136;51.574;7.706;2022-09-16T18:41:37;3.77;;;1.77;;
2257;SDS011;1136;51.574;7.706;2022-09-16T18:44:09;8.63;;;2.60;;